createdAt,value
2023-04-13T00:02:19.744Z,7.29
2023-04-13T00:05:07.666Z,8.25
2023-04-13T00:07:54.497Z,8.17
2023-04-13T00:10:41.805Z,7.26
2023-04-13T00:13:27.808Z,8.44
2023-04-13T00:16:15.914Z,7.30
2023-04-13T00:19:02.118Z,8.03
2023-04-13T00:21:48.236Z,8.48
2023-04-13T00:24:34.313Z,8.46
2023-04-13T00:27:20.501Z,8.11
2023-04-13T00:30:08.030Z,7.21
2023-04-13T00:32:53.579Z,7.33
2023-04-13T00:35:40.044Z,7.19
2023-04-13T00:38:27.340Z,7.91
2023-04-13T00:41:13.097Z,7.49
2023-04-13T00:43:59.491Z,8.07
2023-04-13T00:46:48.284Z,7.77
2023-04-13T00:49:34.942Z,6.96
2023-04-13T00:52:21.438Z,7.76
2023-04-13T00:55:07.807Z,7.98
2023-04-13T00:57:53.589Z,7.63
2023-04-13T01:00:43.081Z,6.91
2023-04-13T01:03:29.845Z,7.63
2023-04-13T01:06:42.143Z,6.87
2023-04-13T01:09:42.392Z,7.99
2023-04-13T01:12:38.530Z,7.98
2023-04-13T01:15:25.970Z,6.90
2023-04-13T01:18:15.620Z,7.33
2023-04-13T01:21:02.693Z,7.97
2023-04-13T01:24:22.727Z,8.04
2023-04-13T01:27:13.064Z,7.21
2023-04-13T01:29:59.025Z,7.18
2023-04-13T01:32:45.736Z,7.24
2023-04-13T01:35:31.975Z,7.10
2023-04-13T01:38:24.512Z,8.06
2023-04-13T01:41:11.999Z,8.32
2023-04-13T01:44:03.007Z,7.95
2023-04-13T01:46:56.232Z,8.32
2023-04-13T01:50:45.434Z,8.65
2023-04-13T01:53:44.820Z,8.69
2023-04-13T01:56:34.043Z,8.40
2023-04-13T01:59:22.551Z,7.52
2023-04-13T02:02:08.180Z,8.15
2023-04-13T02:04:54.079Z,8.57
2023-04-13T02:07:40.328Z,7.48
2023-04-13T02:10:26.573Z,8.64
2023-04-13T02:13:13.984Z,7.93
2023-04-13T02:15:59.330Z,8.53
2023-04-13T02:18:46.573Z,8.59
2023-04-13T02:21:32.154Z,7.34
2023-04-13T02:24:17.494Z,7.35
2023-04-13T02:27:04.237Z,7.29
2023-04-13T02:29:52.532Z,8.44
2023-04-13T02:32:41.152Z,7.43
2023-04-13T02:35:27.427Z,7.24
2023-04-13T02:38:12.701Z,8.35
2023-04-13T02:41:02.243Z,7.73
2023-04-13T02:43:50.222Z,8.04
2023-04-13T02:46:37.225Z,7.19
2023-04-13T02:49:28.681Z,8.28
2023-04-13T02:52:23.280Z,7.97
2023-04-13T02:55:15.891Z,7.83
2023-04-13T02:58:09.434Z,7.28
2023-04-13T03:00:55.670Z,7.14
2023-04-13T03:03:43.037Z,8.35
2023-04-13T03:06:28.751Z,7.38
2023-04-13T03:09:18.340Z,8.04
2023-04-13T03:12:10.868Z,8.47
2023-04-13T03:15:05.233Z,8.45
2023-04-13T03:17:50.730Z,8.45
2023-04-13T03:20:41.948Z,8.16
2023-04-13T03:23:27.289Z,7.13
2023-04-13T03:26:12.719Z,7.60
2023-04-13T03:28:58.632Z,8.18
2023-04-13T03:31:45.978Z,8.15
2023-04-13T03:34:31.886Z,6.98
2023-04-13T03:37:21.107Z,7.46
2023-04-13T03:40:13.148Z,6.90
2023-04-13T03:43:07.123Z,8.18
2023-04-13T03:45:56.486Z,7.57
2023-04-13T03:48:42.431Z,8.26
2023-04-13T03:51:31.743Z,7.77
2023-04-13T03:54:18.384Z,7.17
2023-04-13T03:57:04.670Z,7.62
2023-04-13T03:59:52.214Z,8.32
2023-04-13T04:02:47.308Z,8.07
2023-04-13T04:05:40.493Z,8.35
2023-04-13T04:08:25.898Z,7.45
2023-04-13T04:11:14.708Z,7.38
2023-04-13T04:14:01.439Z,7.39
2023-04-13T04:16:47.085Z,8.20
2023-04-13T04:19:34.502Z,7.54
2023-04-13T04:22:19.806Z,7.79
2023-04-13T04:25:05.854Z,8.41
2023-04-13T04:27:58.192Z,8.34
2023-04-13T04:30:45.740Z,8.27
2023-04-13T04:33:35.360Z,8.29
2023-04-13T04:36:21.404Z,8.37
2023-04-13T04:39:14.343Z,8.39
2023-04-13T04:42:11.003Z,8.39
2023-04-13T04:44:57.833Z,7.75
2023-04-13T04:47:49.810Z,7.64
2023-04-13T04:50:40.123Z,8.66
2023-04-13T04:53:30.119Z,8.44
2023-04-13T04:56:16.225Z,9.01
2023-04-13T04:59:06.713Z,9.00
2023-04-13T05:02:04.622Z,9.28
2023-04-13T05:04:53.147Z,9.34
2023-04-13T05:07:39.782Z,9.11
2023-04-13T05:10:28.701Z,8.46
2023-04-13T05:13:16.869Z,9.54
2023-04-13T05:16:11.025Z,9.14
2023-04-13T05:18:58.290Z,9.89
2023-04-13T05:22:10.535Z,10.10
2023-04-13T05:25:03.092Z,10.43
2023-04-13T05:27:48.677Z,10.62
2023-04-13T05:30:35.523Z,10.90
2023-04-13T05:33:23.777Z,9.91
2023-04-13T05:36:14.003Z,10.32
2023-04-13T05:39:02.586Z,10.22
2023-04-13T05:41:49.253Z,10.34
2023-04-13T05:44:36.306Z,11.34
2023-04-13T05:47:24.103Z,11.48
2023-04-13T05:50:14.967Z,11.77
2023-04-13T05:53:01.499Z,11.65
2023-04-13T05:55:55.256Z,11.21
2023-04-13T05:58:40.872Z,11.37
2023-04-13T06:01:48.356Z,12.56
2023-04-13T06:04:36.327Z,12.75
2023-04-13T06:07:23.314Z,12.92
2023-04-13T06:10:09.129Z,12.39
2023-04-13T06:12:54.762Z,12.90
2023-04-13T06:15:40.456Z,13.21
2023-04-13T06:18:28.904Z,12.49
2023-04-13T06:21:14.634Z,13.40
2023-04-13T06:24:00.321Z,12.24
2023-04-13T06:26:56.572Z,13.28
2023-04-13T06:29:42.415Z,12.97
2023-04-13T06:32:29.856Z,13.45
2023-04-13T06:35:17.353Z,13.52
2023-04-13T06:38:07.426Z,13.27
2023-04-13T06:41:05.704Z,12.62
2023-04-13T06:43:54.724Z,13.70
2023-04-13T06:46:47.399Z,12.82
2023-04-13T06:49:34.130Z,13.37
2023-04-13T06:52:21.050Z,13.81
2023-04-13T06:55:07.880Z,14.11
2023-04-13T06:57:57.324Z,13.13
2023-04-13T07:00:42.683Z,13.91
2023-04-13T07:03:28.394Z,14.10
2023-04-13T07:06:14.377Z,14.07
2023-04-13T07:09:04.347Z,14.06
2023-04-13T07:11:51.066Z,12.70
2023-04-13T07:14:40.991Z,13.89
2023-04-13T07:17:29.057Z,12.98
2023-04-13T07:20:14.621Z,13.99
2023-04-13T07:23:00.731Z,14.11
2023-04-13T07:25:51.230Z,14.22
2023-04-13T07:28:43.088Z,14.30
2023-04-13T07:31:30.786Z,14.36
2023-04-13T07:34:16.847Z,13.43
2023-04-13T07:37:05.111Z,13.31
2023-04-13T07:39:50.759Z,14.16
2023-04-13T07:42:40.026Z,14.00
2023-04-13T07:45:25.305Z,13.85
2023-04-13T07:48:11.128Z,13.41
2023-04-13T07:50:58.434Z,14.16
2023-04-13T07:53:43.923Z,14.07
2023-04-13T07:56:31.317Z,13.25
2023-04-13T07:59:19.225Z,14.30
2023-04-13T08:02:05.730Z,13.97
2023-04-13T08:04:54.645Z,13.74
2023-04-13T08:07:46.853Z,14.42
2023-04-13T08:10:35.184Z,15.04
2023-04-13T08:13:23.975Z,14.75
2023-04-13T08:16:10.419Z,15.10
2023-04-13T08:18:57.580Z,14.14
2023-04-13T08:21:43.384Z,15.17
2023-04-13T08:24:29.282Z,13.97
2023-04-13T08:27:15.179Z,14.75
2023-04-13T08:30:02.535Z,14.76
2023-04-13T08:33:00.283Z,14.59
2023-04-13T08:35:46.521Z,14.66
2023-04-13T08:38:35.587Z,14.52
2023-04-13T08:41:24.158Z,14.41
2023-04-13T08:44:13.782Z,14.42
2023-04-13T08:47:04.259Z,14.35
2023-04-13T08:49:54.198Z,14.24
2023-04-13T08:52:49.380Z,14.20
2023-04-13T08:55:43.571Z,13.96
2023-04-13T08:58:34.947Z,14.09
2023-04-13T09:01:21.935Z,14.65
2023-04-13T09:04:10.853Z,13.67
2023-04-13T09:07:00.633Z,14.77
2023-04-13T09:09:48.595Z,14.62
2023-04-13T09:12:34.997Z,14.12
2023-04-13T09:15:22.625Z,14.45
2023-04-13T09:18:31.760Z,14.84
2023-04-13T09:21:37.407Z,13.89
2023-04-13T09:24:23.117Z,14.86
2023-04-13T09:27:23.201Z,14.51
2023-04-13T09:30:12.709Z,14.93
2023-04-13T09:33:05.946Z,14.09
2023-04-13T09:35:52.076Z,14.14
2023-04-13T09:38:37.765Z,15.22
2023-04-13T09:41:36.549Z,15.39
2023-04-13T09:44:28.625Z,15.49
2023-04-13T09:47:15.533Z,14.77
2023-04-13T09:50:04.766Z,15.09
2023-04-13T09:53:05.246Z,15.61
2023-04-13T09:56:00.670Z,15.69
2023-04-13T09:58:48.257Z,15.75
2023-04-13T10:01:34.463Z,15.76
2023-04-13T10:04:21.245Z,15.80
2023-04-13T10:07:07.082Z,15.80
2023-04-13T10:09:55.964Z,15.77
2023-04-13T10:12:49.590Z,15.49
2023-04-13T10:16:09.916Z,15.78
2023-04-13T10:19:03.738Z,15.77
2023-04-13T10:21:52.609Z,15.66
2023-04-13T10:24:41.650Z,15.77
2023-04-13T10:27:28.392Z,15.74
2023-04-13T10:30:17.801Z,15.77
2023-04-13T10:33:09.499Z,15.33
2023-04-13T10:36:02.391Z,15.44
2023-04-13T10:38:48.067Z,14.64
2023-04-13T10:41:34.453Z,15.74
2023-04-13T10:44:23.786Z,15.80
2023-04-13T10:47:09.932Z,15.71
2023-04-13T10:49:55.829Z,15.13
2023-04-13T10:52:41.412Z,14.96
2023-04-13T10:55:30.077Z,14.96
2023-04-13T10:58:19.644Z,16.00
2023-04-13T11:01:06.297Z,15.90
2023-04-13T11:04:04.563Z,16.02
2023-04-13T11:06:53.187Z,16.08
2023-04-13T11:09:39.296Z,16.09
2023-04-13T11:12:25.368Z,16.11
2023-04-13T11:15:11.543Z,16.06
2023-04-13T11:17:59.232Z,16.01
2023-04-13T11:20:44.588Z,14.98
2023-04-13T11:23:34.453Z,15.18
2023-04-13T11:26:38.588Z,15.87
2023-04-13T11:29:24.292Z,15.22
2023-04-13T11:32:18.895Z,15.72
2023-04-13T11:35:12.687Z,15.90
2023-04-13T11:37:59.700Z,14.90
2023-04-13T11:40:48.426Z,15.70
2023-04-13T11:43:34.179Z,16.01
2023-04-13T11:46:25.541Z,16.02
2023-04-13T11:49:11.480Z,15.85
2023-04-13T11:51:58.157Z,15.95
2023-04-13T11:54:44.882Z,15.40
2023-04-13T11:57:34.015Z,16.11
2023-04-13T12:00:27.470Z,15.87
2023-04-13T12:03:34.444Z,16.12
2023-04-13T12:06:20.902Z,16.16
2023-04-13T12:09:10.610Z,16.18
2023-04-13T12:12:20.553Z,16.22
2023-04-13T12:15:18.050Z,16.09
2023-04-13T12:18:15.634Z,14.61
2023-04-13T12:21:06.039Z,16.20
2023-04-13T12:23:59.489Z,16.10
2023-04-13T12:29:37.942Z,15.05
2023-04-13T12:32:25.125Z,16.04
2023-04-13T12:35:10.929Z,15.93
2023-04-13T12:37:56.826Z,14.91
2023-04-13T12:40:42.449Z,16.04
2023-04-13T12:43:28.905Z,16.09
2023-04-13T12:46:14.677Z,15.01
2023-04-13T12:49:00.616Z,16.07
2023-04-13T12:51:46.573Z,15.72
2023-04-13T12:54:32.521Z,15.13
2023-04-13T12:57:18.198Z,14.93
2023-04-13T13:00:10.355Z,15.07
2023-04-13T13:03:10.155Z,16.29
2023-04-13T13:05:58.754Z,15.29
2023-04-13T13:08:47.180Z,16.14
2023-04-13T13:11:34.519Z,16.21
2023-04-13T13:14:22.990Z,16.20
2023-04-13T13:17:08.626Z,16.17
2023-04-13T13:19:55.616Z,15.83
2023-04-13T13:22:42.242Z,15.18
2023-04-13T13:25:27.944Z,15.44
2023-04-13T13:28:15.278Z,16.26
2023-04-13T13:31:01.699Z,16.30
2023-04-13T13:33:48.930Z,16.36
2023-04-13T13:36:34.881Z,16.33
2023-04-13T13:39:31.309Z,16.15
2023-04-13T13:42:17.356Z,15.34
2023-04-13T13:45:02.737Z,15.48
2023-04-13T13:47:52.168Z,16.42
2023-04-13T13:50:39.648Z,16.29
2023-04-13T13:53:28.066Z,16.46
2023-04-13T13:56:14.496Z,15.93
2023-04-13T13:59:00.376Z,16.37
2023-04-13T14:01:47.108Z,16.20
2023-04-13T14:04:33.225Z,16.45
2023-04-13T14:07:18.737Z,16.54
2023-04-13T14:10:05.968Z,16.56
2023-04-13T14:12:54.591Z,16.55
2023-04-13T14:15:40.026Z,15.72
2023-04-13T14:18:27.867Z,16.31
2023-04-13T14:21:16.147Z,15.47
2023-04-13T14:24:02.215Z,16.54
2023-04-13T14:26:48.486Z,16.52
2023-04-13T14:29:34.410Z,16.45
2023-04-13T14:32:26.426Z,16.49
2023-04-13T14:35:12.245Z,16.47
2023-04-13T14:37:57.941Z,15.54
2023-04-13T14:40:49.697Z,16.43
2023-04-13T14:43:39.178Z,16.36
2023-04-13T14:46:27.954Z,16.14
2023-04-13T14:49:16.297Z,15.16
2023-04-13T14:52:02.197Z,16.16
2023-04-13T14:54:47.777Z,16.22
2023-04-13T14:57:33.828Z,16.18
2023-04-13T15:00:26.066Z,15.20
2023-04-13T15:03:13.236Z,16.11
2023-04-13T15:06:03.261Z,15.92
2023-04-13T15:08:49.852Z,16.08
2023-04-13T15:11:37.936Z,16.14
2023-04-13T15:14:24.098Z,16.19
2023-04-13T15:17:09.698Z,16.10
2023-04-13T15:19:56.316Z,16.30
2023-04-13T15:22:41.919Z,16.32
2023-04-13T15:25:27.708Z,16.33
2023-04-13T15:28:14.157Z,16.33
2023-04-13T15:30:59.829Z,16.33
2023-04-13T15:33:45.486Z,16.29
2023-04-13T15:36:31.236Z,16.35
2023-04-13T15:39:16.903Z,16.33
2023-04-13T15:42:02.875Z,16.09
2023-04-13T15:44:48.672Z,16.39
2023-04-13T15:47:34.763Z,16.24
2023-04-13T15:50:20.477Z,16.34
2023-04-13T15:53:06.427Z,15.90
2023-04-13T15:55:52.239Z,16.39
2023-04-13T15:58:37.855Z,16.36
2023-04-13T16:01:23.910Z,16.27
2023-04-13T16:04:10.194Z,16.04
2023-04-13T16:07:11.842Z,16.10
2023-04-13T16:10:01.446Z,15.97
2023-04-13T16:12:50.065Z,16.07
2023-04-13T16:15:37.037Z,16.05
2023-04-13T16:18:26.173Z,15.84
2023-04-13T16:21:12.469Z,15.53
2023-04-13T16:23:58.163Z,15.83
2023-04-13T16:26:45.158Z,16.11
2023-04-13T16:29:32.748Z,16.10
2023-04-13T16:32:18.933Z,16.08
2023-04-13T16:35:04.972Z,15.77
2023-04-13T16:37:50.621Z,15.99
2023-04-13T16:40:36.501Z,16.02
2023-04-13T16:43:21.924Z,16.01
2023-04-13T16:46:07.725Z,15.51
2023-04-13T16:48:53.012Z,15.83
2023-04-13T16:51:38.577Z,15.94
2023-04-13T16:54:23.986Z,15.06
2023-04-13T16:57:09.986Z,15.70
2023-04-13T16:59:57.642Z,15.88
2023-04-13T17:02:43.265Z,15.30
2023-04-13T17:05:28.963Z,15.78
2023-04-13T17:08:16.268Z,15.73
2023-04-13T17:11:04.941Z,15.57
2023-04-13T17:13:51.469Z,15.60
2023-04-13T17:16:37.403Z,15.03
2023-04-13T17:19:23.783Z,15.43
2023-04-13T17:22:10.025Z,14.82
2023-04-13T17:24:56.195Z,15.18
2023-04-13T17:27:41.715Z,14.87
2023-04-13T17:30:28.044Z,14.68
2023-04-13T17:33:14.422Z,14.53
2023-04-13T17:36:00.101Z,14.65
2023-04-13T17:38:45.531Z,13.91
2023-04-13T17:41:30.941Z,14.53
2023-04-13T17:44:16.332Z,13.48
2023-04-13T17:47:01.922Z,14.45
2023-04-13T17:49:47.170Z,14.42
2023-04-13T17:52:32.720Z,14.40
2023-04-13T17:55:18.037Z,13.26
2023-04-13T17:58:04.184Z,12.49
2023-04-13T18:00:49.521Z,13.74
2023-04-13T18:03:35.275Z,13.25
2023-04-13T18:06:20.919Z,13.31
2023-04-13T18:09:07.356Z,12.91
2023-04-13T18:11:52.949Z,13.78
2023-04-13T18:14:38.977Z,13.04
2023-04-13T18:17:26.285Z,13.81
2023-04-13T18:20:12.432Z,13.45
2023-04-13T18:22:57.786Z,13.58
2023-04-13T18:25:43.528Z,13.29
2023-04-13T18:28:29.748Z,12.37
2023-04-13T18:31:15.768Z,13.39
2023-04-13T18:34:01.809Z,13.11
2023-04-13T18:36:47.648Z,13.24
2023-04-13T18:39:33.987Z,13.17
2023-04-13T18:42:19.403Z,13.12
2023-04-13T18:45:06.348Z,11.77
2023-04-13T18:47:52.321Z,13.08
2023-04-13T18:50:38.761Z,12.84
2023-04-13T18:53:25.071Z,13.11
2023-04-13T18:56:14.341Z,13.17
2023-04-13T18:59:00.954Z,13.15
2023-04-13T19:01:47.250Z,13.07
2023-04-13T19:04:35.180Z,12.38
2023-04-13T19:07:22.203Z,12.49
2023-04-13T19:10:08.488Z,12.28
2023-04-13T19:12:54.298Z,12.62
2023-04-13T19:15:39.646Z,11.57
2023-04-13T19:18:25.765Z,12.03
2023-04-13T19:21:11.828Z,11.19
2023-04-13T19:23:58.386Z,12.22
2023-04-13T19:26:44.704Z,11.34
2023-04-13T19:29:31.508Z,11.31
2023-04-13T19:32:17.343Z,10.70
2023-04-13T19:35:03.999Z,11.96
2023-04-13T19:37:50.000Z,10.98
2023-04-13T19:40:35.808Z,11.53
2023-04-13T19:43:23.584Z,11.92
2023-04-13T19:46:09.457Z,12.19
2023-04-13T19:48:58.951Z,11.11
2023-04-13T19:51:44.609Z,12.04
2023-04-13T19:54:30.498Z,12.19
2023-04-13T19:57:16.532Z,12.16
2023-04-13T20:00:02.872Z,11.70
2023-04-13T20:02:52.597Z,10.95
2023-04-13T20:05:39.985Z,11.57
2023-04-13T20:08:25.839Z,11.84
2023-04-13T20:11:11.941Z,11.86
2023-04-13T20:13:57.533Z,10.61
2023-04-13T20:16:43.262Z,11.07
2023-04-13T20:19:28.667Z,11.76
2023-04-13T20:22:14.284Z,11.79
2023-04-13T20:24:59.610Z,11.83
2023-04-13T20:27:45.753Z,11.05
2023-04-13T20:30:31.492Z,11.45
2023-04-13T20:33:17.226Z,10.78
2023-04-13T20:36:03.287Z,10.83
2023-04-13T20:38:48.960Z,10.88
2023-04-13T20:41:35.554Z,11.84
2023-04-13T20:44:25.989Z,11.53
2023-04-13T20:47:14.636Z,11.37
2023-04-13T20:50:00.588Z,11.39
2023-04-13T20:52:46.432Z,11.44
2023-04-13T20:55:32.404Z,11.55
2023-04-13T20:58:17.792Z,10.74
2023-04-13T21:01:03.593Z,10.25
2023-04-13T21:03:49.979Z,10.30
2023-04-13T21:06:35.384Z,11.11
2023-04-13T21:09:21.082Z,10.43
2023-04-13T21:12:06.653Z,10.68
2023-04-13T21:14:52.379Z,10.41
2023-04-13T21:17:38.188Z,10.24
2023-04-13T21:20:24.370Z,10.62
2023-04-13T21:23:13.820Z,9.76
2023-04-13T21:25:59.083Z,9.89
2023-04-13T21:28:44.444Z,10.85
2023-04-13T21:31:31.322Z,10.25
2023-04-13T21:34:18.244Z,10.53
2023-04-13T21:37:03.772Z,10.62
2023-04-13T21:39:49.698Z,9.35
2023-04-13T21:42:35.016Z,9.24
2023-04-13T21:45:20.792Z,10.36
2023-04-13T21:48:06.422Z,9.13
2023-04-13T21:50:52.785Z,9.27
2023-04-13T21:53:38.923Z,10.42
2023-04-13T21:56:24.532Z,9.35
2023-04-13T21:59:09.944Z,9.32
2023-04-13T22:01:55.592Z,10.30
2023-04-13T22:04:41.398Z,10.64
2023-04-13T22:07:39.392Z,9.47
2023-04-13T22:10:28.243Z,10.77
2023-04-13T22:13:13.779Z,10.71
2023-04-13T22:15:59.384Z,9.42
2023-04-13T22:18:45.063Z,10.64
2023-04-13T22:21:31.427Z,9.58
2023-04-13T22:24:17.121Z,10.55
2023-04-13T22:27:03.508Z,9.92
2023-04-13T22:29:49.399Z,9.94
2023-04-13T22:32:34.989Z,9.22
2023-04-13T22:35:20.611Z,9.54
2023-04-13T22:38:05.998Z,9.25
2023-04-13T22:40:51.353Z,9.48
2023-04-13T22:43:36.938Z,10.47
2023-04-13T22:46:23.056Z,9.89
2023-04-13T22:49:08.577Z,9.98
2023-04-13T22:51:53.763Z,9.97
2023-04-13T22:54:39.579Z,10.03
2023-04-13T22:57:25.770Z,9.93
2023-04-13T23:00:12.128Z,9.91
2023-04-13T23:02:57.612Z,8.96
2023-04-13T23:05:43.857Z,10.05
2023-04-13T23:08:29.496Z,10.02
2023-04-13T23:11:15.138Z,10.11
2023-04-13T23:14:00.740Z,9.16
2023-04-13T23:16:46.576Z,10.14
2023-04-13T23:19:31.955Z,10.03
2023-04-13T23:22:17.336Z,8.80
2023-04-13T23:25:02.798Z,8.75
2023-04-13T23:27:48.003Z,9.90
2023-04-13T23:30:33.429Z,9.73
2023-04-13T23:33:21.124Z,9.44
2023-04-13T23:36:07.272Z,9.09
2023-04-13T23:38:53.082Z,9.30
2023-04-13T23:41:38.460Z,9.17
2023-04-13T23:44:23.902Z,8.73
2023-04-13T23:47:09.380Z,9.08
2023-04-13T23:49:55.751Z,8.80
2023-04-13T23:52:41.351Z,9.09
2023-04-13T23:55:27.790Z,8.79
2023-04-13T23:58:13.302Z,9.27
